sensor_id;sensor_type;location;lat;lon;timestamp;P1;durP1;ratioP1;P2;durP2;ratioP2
16832;SDS011;8533;48.426;10.868;2023-11-18T00:00:17;5.67;;;3.27;;
16832;SDS011;8533;48.426;10.868;2023-11-18T00:02:43;5.20;;;3.30;;
16832;SDS011;8533;48.426;10.868;2023-11-18T00:05:09;5.53;;;3.37;;
16832;SDS011;8533;48.426;10.868;2023-11-18T00:07:35;7.10;;;3.50;;
16832;SDS011;8533;48.426;10.868;2023-11-18T00:10:00;7.27;;;3.37;;
16832;SDS011;8533;48.426;10.868;2023-11-18T00:12:26;4.13;;;3.00;;
16832;SDS011;8533;48.426;10.868;2023-11-18T00:14:51;5.13;;;3.17;;
16832;SDS011;8533;48.426;10.868;2023-11-18T00:17:16;4.97;;;3.57;;
16832;SDS011;8533;48.426;10.868;2023-11-18T00:19:41;6.27;;;3.73;;
16832;SDS011;8533;48.426;10.868;2023-11-18T00:22:07;6.43;;;3.30;;
16832;SDS011;8533;48.426;10.868;2023-11-18T00:24:33;5.50;;;3.67;;
16832;SDS011;8533;48.426;10.868;2023-11-18T00:27:00;6.50;;;3.57;;
16832;SDS011;8533;48.426;10.868;2023-11-18T00:29:31;4.70;;;3.20;;
16832;SDS011;8533;48.426;10.868;2023-11-18T00:32:02;6.93;;;3.50;;
16832;SDS011;8533;48.426;10.868;2023-11-18T00:34:29;5.93;;;3.00;;
16832;SDS011;8533;48.426;10.868;2023-11-18T00:36:55;4.00;;;3.27;;
16832;SDS011;8533;48.426;10.868;2023-11-18T00:39:22;5.17;;;3.23;;
16832;SDS011;8533;48.426;10.868;2023-11-18T00:41:48;5.00;;;3.10;;
16832;SDS011;8533;48.426;10.868;2023-11-18T00:44:13;4.70;;;3.47;;
16832;SDS011;8533;48.426;10.868;2023-11-18T00:46:39;4.43;;;3.00;;
16832;SDS011;8533;48.426;10.868;2023-11-18T00:49:04;4.80;;;3.67;;
16832;SDS011;8533;48.426;10.868;2023-11-18T00:51:30;3.60;;;2.93;;
16832;SDS011;8533;48.426;10.868;2023-11-18T00:53:55;3.77;;;3.10;;
16832;SDS011;8533;48.426;10.868;2023-11-18T00:56:20;5.83;;;3.00;;
16832;SDS011;8533;48.426;10.868;2023-11-18T00:58:49;4.00;;;3.00;;
16832;SDS011;8533;48.426;10.868;2023-11-18T01:01:15;4.53;;;3.20;;
16832;SDS011;8533;48.426;10.868;2023-11-18T01:03:46;3.90;;;3.27;;
16832;SDS011;8533;48.426;10.868;2023-11-18T01:06:11;4.50;;;3.37;;
16832;SDS011;8533;48.426;10.868;2023-11-18T01:08:37;5.30;;;3.30;;
16832;SDS011;8533;48.426;10.868;2023-11-18T01:11:03;6.97;;;3.00;;
16832;SDS011;8533;48.426;10.868;2023-11-18T01:13:32;3.83;;;3.23;;
16832;SDS011;8533;48.426;10.868;2023-11-18T01:15:57;4.87;;;3.40;;
16832;SDS011;8533;48.426;10.868;2023-11-18T01:18:22;4.23;;;3.20;;
16832;SDS011;8533;48.426;10.868;2023-11-18T01:20:48;5.73;;;3.43;;
16832;SDS011;8533;48.426;10.868;2023-11-18T01:23:13;4.03;;;2.90;;
16832;SDS011;8533;48.426;10.868;2023-11-18T01:25:39;6.50;;;3.03;;
16832;SDS011;8533;48.426;10.868;2023-11-18T01:28:05;3.80;;;2.63;;
16832;SDS011;8533;48.426;10.868;2023-11-18T01:30:30;3.57;;;2.80;;
16832;SDS011;8533;48.426;10.868;2023-11-18T01:32:57;4.80;;;3.27;;
16832;SDS011;8533;48.426;10.868;2023-11-18T01:35:22;4.07;;;2.70;;
16832;SDS011;8533;48.426;10.868;2023-11-18T01:37:51;4.13;;;3.13;;
16832;SDS011;8533;48.426;10.868;2023-11-18T01:40:17;4.53;;;3.00;;
16832;SDS011;8533;48.426;10.868;2023-11-18T01:42:45;3.70;;;2.67;;
16832;SDS011;8533;48.426;10.868;2023-11-18T01:45:11;4.13;;;2.97;;
16832;SDS011;8533;48.426;10.868;2023-11-18T01:47:41;4.37;;;3.00;;
16832;SDS011;8533;48.426;10.868;2023-11-18T01:50:08;3.93;;;2.97;;
16832;SDS011;8533;48.426;10.868;2023-11-18T01:52:36;3.63;;;2.77;;
16832;SDS011;8533;48.426;10.868;2023-11-18T01:55:02;3.67;;;3.00;;
16832;SDS011;8533;48.426;10.868;2023-11-18T01:57:31;4.07;;;2.67;;
16832;SDS011;8533;48.426;10.868;2023-11-18T01:59:58;3.87;;;2.67;;
16832;SDS011;8533;48.426;10.868;2023-11-18T02:02:23;5.63;;;2.70;;
16832;SDS011;8533;48.426;10.868;2023-11-18T02:04:50;4.30;;;2.80;;
16832;SDS011;8533;48.426;10.868;2023-11-18T02:07:15;4.20;;;2.90;;
16832;SDS011;8533;48.426;10.868;2023-11-18T02:09:41;4.17;;;2.60;;
16832;SDS011;8533;48.426;10.868;2023-11-18T02:12:16;3.90;;;2.63;;
16832;SDS011;8533;48.426;10.868;2023-11-18T02:14:47;4.70;;;2.77;;
16832;SDS011;8533;48.426;10.868;2023-11-18T02:17:14;3.57;;;2.80;;
16832;SDS011;8533;48.426;10.868;2023-11-18T02:19:49;5.43;;;2.87;;
16832;SDS011;8533;48.426;10.868;2023-11-18T02:22:16;4.87;;;3.10;;
16832;SDS011;8533;48.426;10.868;2023-11-18T02:24:42;3.03;;;2.67;;
16832;SDS011;8533;48.426;10.868;2023-11-18T02:27:08;3.70;;;2.80;;
16832;SDS011;8533;48.426;10.868;2023-11-18T02:29:37;5.53;;;2.70;;
16832;SDS011;8533;48.426;10.868;2023-11-18T02:32:51;4.40;;;2.70;;
16832;SDS011;8533;48.426;10.868;2023-11-18T02:37:55;3.33;;;2.50;;
16832;SDS011;8533;48.426;10.868;2023-11-18T02:40:27;4.87;;;2.60;;
16832;SDS011;8533;48.426;10.868;2023-11-18T02:42:58;4.23;;;2.60;;
16832;SDS011;8533;48.426;10.868;2023-11-18T02:45:25;3.40;;;2.53;;
16832;SDS011;8533;48.426;10.868;2023-11-18T02:47:52;4.13;;;2.90;;
16832;SDS011;8533;48.426;10.868;2023-11-18T02:50:22;4.17;;;2.80;;
16832;SDS011;8533;48.426;10.868;2023-11-18T02:52:50;4.17;;;2.80;;
16832;SDS011;8533;48.426;10.868;2023-11-18T02:55:15;4.03;;;3.17;;
16832;SDS011;8533;48.426;10.868;2023-11-18T02:57:41;3.00;;;2.70;;
16832;SDS011;8533;48.426;10.868;2023-11-18T03:00:06;4.83;;;3.53;;
16832;SDS011;8533;48.426;10.868;2023-11-18T03:02:48;4.57;;;2.60;;
16832;SDS011;8533;48.426;10.868;2023-11-18T03:05:15;4.30;;;3.13;;
16832;SDS011;8533;48.426;10.868;2023-11-18T03:07:41;4.47;;;3.13;;
16832;SDS011;8533;48.426;10.868;2023-11-18T03:10:07;3.73;;;2.80;;
16832;SDS011;8533;48.426;10.868;2023-11-18T03:12:37;4.73;;;3.23;;
16832;SDS011;8533;48.426;10.868;2023-11-18T03:15:06;4.67;;;3.10;;
16832;SDS011;8533;48.426;10.868;2023-11-18T03:17:34;4.30;;;3.00;;
16832;SDS011;8533;48.426;10.868;2023-11-18T03:19:59;5.07;;;3.10;;
16832;SDS011;8533;48.426;10.868;2023-11-18T03:22:25;4.20;;;2.93;;
16832;SDS011;8533;48.426;10.868;2023-11-18T03:24:50;3.90;;;2.73;;
16832;SDS011;8533;48.426;10.868;2023-11-18T03:27:16;4.50;;;3.10;;
16832;SDS011;8533;48.426;10.868;2023-11-18T03:29:41;4.70;;;2.97;;
16832;SDS011;8533;48.426;10.868;2023-11-18T03:32:08;4.27;;;2.90;;
16832;SDS011;8533;48.426;10.868;2023-11-18T03:34:33;4.83;;;3.07;;
16832;SDS011;8533;48.426;10.868;2023-11-18T03:36:59;4.00;;;3.03;;
16832;SDS011;8533;48.426;10.868;2023-11-18T03:39:25;4.53;;;3.23;;
16832;SDS011;8533;48.426;10.868;2023-11-18T03:41:50;4.60;;;3.00;;
16832;SDS011;8533;48.426;10.868;2023-11-18T03:44:15;5.37;;;3.27;;
16832;SDS011;8533;48.426;10.868;2023-11-18T03:46:42;4.33;;;3.07;;
16832;SDS011;8533;48.426;10.868;2023-11-18T03:49:07;4.97;;;3.00;;
16832;SDS011;8533;48.426;10.868;2023-11-18T03:51:32;6.37;;;3.20;;
16832;SDS011;8533;48.426;10.868;2023-11-18T03:53:58;6.60;;;3.47;;
16832;SDS011;8533;48.426;10.868;2023-11-18T03:56:23;5.77;;;3.57;;
16832;SDS011;8533;48.426;10.868;2023-11-18T03:58:48;5.97;;;3.30;;
16832;SDS011;8533;48.426;10.868;2023-11-18T04:01:23;4.90;;;3.23;;
16832;SDS011;8533;48.426;10.868;2023-11-18T04:03:51;4.87;;;2.93;;
16832;SDS011;8533;48.426;10.868;2023-11-18T04:06:17;6.87;;;3.30;;
16832;SDS011;8533;48.426;10.868;2023-11-18T04:08:44;6.57;;;3.73;;
16832;SDS011;8533;48.426;10.868;2023-11-18T04:11:10;3.57;;;3.10;;
16832;SDS011;8533;48.426;10.868;2023-11-18T04:13:36;5.77;;;3.40;;
16832;SDS011;8533;48.426;10.868;2023-11-18T04:16:01;4.63;;;3.40;;
16832;SDS011;8533;48.426;10.868;2023-11-18T04:18:26;5.37;;;3.30;;
16832;SDS011;8533;48.426;10.868;2023-11-18T04:20:52;4.90;;;3.30;;
16832;SDS011;8533;48.426;10.868;2023-11-18T04:23:17;5.13;;;3.00;;
16832;SDS011;8533;48.426;10.868;2023-11-18T04:25:43;4.80;;;3.20;;
16832;SDS011;8533;48.426;10.868;2023-11-18T04:28:08;4.33;;;3.07;;
16832;SDS011;8533;48.426;10.868;2023-11-18T04:30:35;3.97;;;3.07;;
16832;SDS011;8533;48.426;10.868;2023-11-18T04:33:00;5.27;;;3.47;;
16832;SDS011;8533;48.426;10.868;2023-11-18T04:35:26;4.03;;;3.00;;
16832;SDS011;8533;48.426;10.868;2023-11-18T04:37:51;4.90;;;3.37;;
16832;SDS011;8533;48.426;10.868;2023-11-18T04:40:16;4.50;;;3.30;;
16832;SDS011;8533;48.426;10.868;2023-11-18T04:42:42;5.37;;;3.40;;
16832;SDS011;8533;48.426;10.868;2023-11-18T04:45:07;6.37;;;3.93;;
16832;SDS011;8533;48.426;10.868;2023-11-18T04:47:34;6.47;;;3.57;;
16832;SDS011;8533;48.426;10.868;2023-11-18T04:50:00;4.23;;;3.10;;
16832;SDS011;8533;48.426;10.868;2023-11-18T04:52:26;5.33;;;3.53;;
16832;SDS011;8533;48.426;10.868;2023-11-18T04:54:52;5.37;;;3.60;;
16832;SDS011;8533;48.426;10.868;2023-11-18T04:57:17;6.27;;;3.63;;
16832;SDS011;8533;48.426;10.868;2023-11-18T04:59:42;4.90;;;3.37;;
16832;SDS011;8533;48.426;10.868;2023-11-18T05:02:08;4.67;;;3.47;;
16832;SDS011;8533;48.426;10.868;2023-11-18T05:04:34;5.10;;;3.40;;
16832;SDS011;8533;48.426;10.868;2023-11-18T05:07:00;6.77;;;3.80;;
16832;SDS011;8533;48.426;10.868;2023-11-18T05:09:26;5.77;;;3.53;;
16832;SDS011;8533;48.426;10.868;2023-11-18T05:11:51;5.00;;;3.33;;
16832;SDS011;8533;48.426;10.868;2023-11-18T05:14:17;6.40;;;3.67;;
16832;SDS011;8533;48.426;10.868;2023-11-18T05:16:43;6.07;;;3.40;;
16832;SDS011;8533;48.426;10.868;2023-11-18T05:19:08;6.10;;;3.33;;
16832;SDS011;8533;48.426;10.868;2023-11-18T05:21:33;4.30;;;3.43;;
16832;SDS011;8533;48.426;10.868;2023-11-18T05:23:59;4.20;;;2.97;;
16832;SDS011;8533;48.426;10.868;2023-11-18T05:26:24;5.37;;;3.67;;
16832;SDS011;8533;48.426;10.868;2023-11-18T05:28:49;4.33;;;2.93;;
16832;SDS011;8533;48.426;10.868;2023-11-18T05:31:15;5.03;;;3.33;;
16832;SDS011;8533;48.426;10.868;2023-11-18T05:33:41;5.90;;;3.33;;
16832;SDS011;8533;48.426;10.868;2023-11-18T05:36:07;5.17;;;3.43;;
16832;SDS011;8533;48.426;10.868;2023-11-18T05:38:33;5.47;;;3.33;;
16832;SDS011;8533;48.426;10.868;2023-11-18T05:41:00;5.63;;;3.57;;
16832;SDS011;8533;48.426;10.868;2023-11-18T05:43:28;6.20;;;3.67;;
16832;SDS011;8533;48.426;10.868;2023-11-18T05:46:02;5.47;;;3.70;;
16832;SDS011;8533;48.426;10.868;2023-11-18T05:48:43;5.57;;;3.33;;
16832;SDS011;8533;48.426;10.868;2023-11-18T05:51:09;4.50;;;3.17;;
16832;SDS011;8533;48.426;10.868;2023-11-18T05:53:42;5.80;;;3.43;;
16832;SDS011;8533;48.426;10.868;2023-11-18T05:56:14;7.40;;;4.20;;
16832;SDS011;8533;48.426;10.868;2023-11-18T05:58:43;5.57;;;4.10;;
16832;SDS011;8533;48.426;10.868;2023-11-18T06:01:09;6.77;;;3.83;;
16832;SDS011;8533;48.426;10.868;2023-11-18T06:03:36;5.40;;;3.70;;
16832;SDS011;8533;48.426;10.868;2023-11-18T06:06:08;5.00;;;3.40;;
16832;SDS011;8533;48.426;10.868;2023-11-18T06:08:35;4.57;;;3.33;;
16832;SDS011;8533;48.426;10.868;2023-11-18T06:11:00;6.17;;;3.97;;
16832;SDS011;8533;48.426;10.868;2023-11-18T06:13:30;5.33;;;3.50;;
16832;SDS011;8533;48.426;10.868;2023-11-18T06:15:56;4.53;;;3.60;;
16832;SDS011;8533;48.426;10.868;2023-11-18T06:18:23;5.73;;;3.50;;
16832;SDS011;8533;48.426;10.868;2023-11-18T06:20:49;5.70;;;3.70;;
16832;SDS011;8533;48.426;10.868;2023-11-18T06:23:14;5.43;;;3.30;;
16832;SDS011;8533;48.426;10.868;2023-11-18T06:25:43;5.10;;;3.30;;
16832;SDS011;8533;48.426;10.868;2023-11-18T06:28:10;4.87;;;3.30;;
16832;SDS011;8533;48.426;10.868;2023-11-18T06:30:36;4.00;;;2.87;;
16832;SDS011;8533;48.426;10.868;2023-11-18T06:33:01;5.73;;;3.30;;
16832;SDS011;8533;48.426;10.868;2023-11-18T06:35:27;5.27;;;3.60;;
16832;SDS011;8533;48.426;10.868;2023-11-18T06:37:54;4.90;;;3.03;;
16832;SDS011;8533;48.426;10.868;2023-11-18T06:40:20;5.47;;;3.73;;
16832;SDS011;8533;48.426;10.868;2023-11-18T06:42:46;5.10;;;3.67;;
16832;SDS011;8533;48.426;10.868;2023-11-18T06:45:12;5.70;;;3.60;;
16832;SDS011;8533;48.426;10.868;2023-11-18T06:47:38;3.87;;;2.83;;
16832;SDS011;8533;48.426;10.868;2023-11-18T06:50:08;5.37;;;3.70;;
16832;SDS011;8533;48.426;10.868;2023-11-18T06:52:36;4.00;;;3.20;;
16832;SDS011;8533;48.426;10.868;2023-11-18T06:55:02;5.53;;;3.40;;
16832;SDS011;8533;48.426;10.868;2023-11-18T06:57:28;5.20;;;3.50;;
16832;SDS011;8533;48.426;10.868;2023-11-18T06:59:54;4.83;;;3.27;;
16832;SDS011;8533;48.426;10.868;2023-11-18T07:02:19;6.50;;;3.57;;
16832;SDS011;8533;48.426;10.868;2023-11-18T07:04:45;5.50;;;3.50;;
16832;SDS011;8533;48.426;10.868;2023-11-18T07:07:11;6.03;;;3.73;;
16832;SDS011;8533;48.426;10.868;2023-11-18T07:09:37;5.53;;;3.50;;
16832;SDS011;8533;48.426;10.868;2023-11-18T07:12:02;3.87;;;3.10;;
16832;SDS011;8533;48.426;10.868;2023-11-18T07:14:28;4.67;;;3.00;;
16832;SDS011;8533;48.426;10.868;2023-11-18T07:16:54;7.63;;;3.47;;
16832;SDS011;8533;48.426;10.868;2023-11-18T07:19:19;4.73;;;3.27;;
16832;SDS011;8533;48.426;10.868;2023-11-18T07:21:46;4.97;;;3.60;;
16832;SDS011;8533;48.426;10.868;2023-11-18T07:24:11;5.27;;;3.27;;
16832;SDS011;8533;48.426;10.868;2023-11-18T07:26:37;5.53;;;3.53;;
16832;SDS011;8533;48.426;10.868;2023-11-18T07:29:02;5.57;;;3.53;;
16832;SDS011;8533;48.426;10.868;2023-11-18T07:31:28;8.57;;;3.73;;
16832;SDS011;8533;48.426;10.868;2023-11-18T07:33:54;5.27;;;3.53;;
16832;SDS011;8533;48.426;10.868;2023-11-18T07:36:19;6.03;;;3.57;;
16832;SDS011;8533;48.426;10.868;2023-11-18T07:38:45;7.40;;;3.67;;
16832;SDS011;8533;48.426;10.868;2023-11-18T07:41:11;6.57;;;3.93;;
16832;SDS011;8533;48.426;10.868;2023-11-18T07:43:48;7.60;;;4.27;;
16832;SDS011;8533;48.426;10.868;2023-11-18T07:46:14;5.93;;;3.63;;
16832;SDS011;8533;48.426;10.868;2023-11-18T07:48:40;5.80;;;3.53;;
16832;SDS011;8533;48.426;10.868;2023-11-18T07:51:05;5.67;;;3.47;;
16832;SDS011;8533;48.426;10.868;2023-11-18T07:53:32;7.60;;;4.57;;
16832;SDS011;8533;48.426;10.868;2023-11-18T07:55:57;5.03;;;3.70;;
16832;SDS011;8533;48.426;10.868;2023-11-18T07:58:22;6.43;;;4.10;;
16832;SDS011;8533;48.426;10.868;2023-11-18T08:00:48;7.87;;;4.13;;
16832;SDS011;8533;48.426;10.868;2023-11-18T08:03:14;8.20;;;4.60;;
16832;SDS011;8533;48.426;10.868;2023-11-18T08:05:40;6.60;;;4.27;;
16832;SDS011;8533;48.426;10.868;2023-11-18T08:08:06;6.17;;;3.57;;
16832;SDS011;8533;48.426;10.868;2023-11-18T08:10:35;8.83;;;4.43;;
16832;SDS011;8533;48.426;10.868;2023-11-18T08:13:03;6.63;;;4.07;;
16832;SDS011;8533;48.426;10.868;2023-11-18T08:15:33;11.70;;;4.40;;
16832;SDS011;8533;48.426;10.868;2023-11-18T08:17:59;6.10;;;4.00;;
16832;SDS011;8533;48.426;10.868;2023-11-18T08:20:25;6.10;;;4.20;;
16832;SDS011;8533;48.426;10.868;2023-11-18T08:22:50;7.07;;;4.40;;
16832;SDS011;8533;48.426;10.868;2023-11-18T08:25:16;6.97;;;4.03;;
16832;SDS011;8533;48.426;10.868;2023-11-18T08:27:42;5.97;;;4.20;;
16832;SDS011;8533;48.426;10.868;2023-11-18T08:30:08;6.93;;;3.93;;
16832;SDS011;8533;48.426;10.868;2023-11-18T08:32:37;8.40;;;4.83;;
16832;SDS011;8533;48.426;10.868;2023-11-18T08:35:09;8.10;;;4.13;;
16832;SDS011;8533;48.426;10.868;2023-11-18T08:37:35;7.17;;;4.33;;
16832;SDS011;8533;48.426;10.868;2023-11-18T08:40:02;6.90;;;4.30;;
16832;SDS011;8533;48.426;10.868;2023-11-18T08:42:28;10.97;;;4.60;;
16832;SDS011;8533;48.426;10.868;2023-11-18T08:44:54;6.67;;;4.13;;
16832;SDS011;8533;48.426;10.868;2023-11-18T08:47:21;7.03;;;4.40;;
16832;SDS011;8533;48.426;10.868;2023-11-18T08:49:46;7.90;;;4.43;;
16832;SDS011;8533;48.426;10.868;2023-11-18T08:52:12;7.03;;;4.30;;
16832;SDS011;8533;48.426;10.868;2023-11-18T08:54:38;5.80;;;4.10;;
16832;SDS011;8533;48.426;10.868;2023-11-18T08:57:23;6.77;;;3.97;;
16832;SDS011;8533;48.426;10.868;2023-11-18T08:59:50;7.13;;;4.53;;
16832;SDS011;8533;48.426;10.868;2023-11-18T09:02:19;7.00;;;4.53;;
16832;SDS011;8533;48.426;10.868;2023-11-18T09:04:48;6.63;;;4.10;;
16832;SDS011;8533;48.426;10.868;2023-11-18T09:07:14;7.87;;;4.83;;
16832;SDS011;8533;48.426;10.868;2023-11-18T09:09:40;8.03;;;4.60;;
16832;SDS011;8533;48.426;10.868;2023-11-18T09:12:05;6.73;;;4.27;;
16832;SDS011;8533;48.426;10.868;2023-11-18T09:14:33;7.27;;;4.93;;
16832;SDS011;8533;48.426;10.868;2023-11-18T09:16:59;8.10;;;4.37;;
16832;SDS011;8533;48.426;10.868;2023-11-18T09:19:24;5.23;;;3.77;;
16832;SDS011;8533;48.426;10.868;2023-11-18T09:21:50;6.80;;;4.20;;
16832;SDS011;8533;48.426;10.868;2023-11-18T09:24:17;8.07;;;5.13;;
16832;SDS011;8533;48.426;10.868;2023-11-18T09:26:45;5.47;;;4.00;;
16832;SDS011;8533;48.426;10.868;2023-11-18T09:29:15;6.63;;;4.63;;
16832;SDS011;8533;48.426;10.868;2023-11-18T09:31:46;8.13;;;4.70;;
16832;SDS011;8533;48.426;10.868;2023-11-18T09:34:15;5.83;;;4.20;;
16832;SDS011;8533;48.426;10.868;2023-11-18T09:36:42;5.83;;;4.13;;
16832;SDS011;8533;48.426;10.868;2023-11-18T09:39:10;5.83;;;4.13;;
16832;SDS011;8533;48.426;10.868;2023-11-18T09:41:54;6.13;;;3.87;;
16832;SDS011;8533;48.426;10.868;2023-11-18T09:44:23;6.27;;;4.10;;
16832;SDS011;8533;48.426;10.868;2023-11-18T09:46:50;6.00;;;4.13;;
16832;SDS011;8533;48.426;10.868;2023-11-18T09:49:34;5.27;;;3.90;;
16832;SDS011;8533;48.426;10.868;2023-11-18T09:52:07;5.20;;;4.00;;
16832;SDS011;8533;48.426;10.868;2023-11-18T09:57:08;5.43;;;3.53;;
16832;SDS011;8533;48.426;10.868;2023-11-18T10:02:19;5.67;;;3.57;;
16832;SDS011;8533;48.426;10.868;2023-11-18T10:04:48;5.23;;;3.23;;
16832;SDS011;8533;48.426;10.868;2023-11-18T10:07:15;5.63;;;3.70;;
16832;SDS011;8533;48.426;10.868;2023-11-18T10:09:44;4.73;;;3.40;;
16832;SDS011;8533;48.426;10.868;2023-11-18T10:12:11;4.53;;;3.30;;
16832;SDS011;8533;48.426;10.868;2023-11-18T10:14:41;5.00;;;3.50;;
16832;SDS011;8533;48.426;10.868;2023-11-18T10:17:08;3.83;;;3.07;;
16832;SDS011;8533;48.426;10.868;2023-11-18T10:19:52;4.90;;;3.23;;
16832;SDS011;8533;48.426;10.868;2023-11-18T10:22:23;4.10;;;3.10;;
16832;SDS011;8533;48.426;10.868;2023-11-18T10:24:51;3.60;;;2.90;;
16832;SDS011;8533;48.426;10.868;2023-11-18T10:27:19;5.57;;;3.37;;
16832;SDS011;8533;48.426;10.868;2023-11-18T10:29:47;5.17;;;3.20;;
16832;SDS011;8533;48.426;10.868;2023-11-18T10:32:13;6.30;;;3.10;;
16832;SDS011;8533;48.426;10.868;2023-11-18T10:34:45;7.93;;;3.27;;
16832;SDS011;8533;48.426;10.868;2023-11-18T10:37:10;5.80;;;3.30;;
16832;SDS011;8533;48.426;10.868;2023-11-18T10:39:36;4.63;;;3.67;;
16832;SDS011;8533;48.426;10.868;2023-11-18T10:42:02;5.33;;;3.13;;
16832;SDS011;8533;48.426;10.868;2023-11-18T10:44:28;4.83;;;3.53;;
16832;SDS011;8533;48.426;10.868;2023-11-18T10:46:54;4.03;;;3.13;;
16832;SDS011;8533;48.426;10.868;2023-11-18T10:49:24;4.63;;;3.67;;
16832;SDS011;8533;48.426;10.868;2023-11-18T10:51:52;4.30;;;3.23;;
16832;SDS011;8533;48.426;10.868;2023-11-18T10:54:18;4.13;;;3.07;;
16832;SDS011;8533;48.426;10.868;2023-11-18T10:56:48;4.90;;;3.60;;
16832;SDS011;8533;48.426;10.868;2023-11-18T10:59:21;4.17;;;3.30;;
16832;SDS011;8533;48.426;10.868;2023-11-18T11:01:47;6.30;;;3.53;;
16832;SDS011;8533;48.426;10.868;2023-11-18T11:04:17;5.50;;;3.20;;
16832;SDS011;8533;48.426;10.868;2023-11-18T11:06:45;5.70;;;3.93;;
16832;SDS011;8533;48.426;10.868;2023-11-18T11:09:18;6.43;;;3.50;;
16832;SDS011;8533;48.426;10.868;2023-11-18T11:11:53;4.87;;;3.87;;
16832;SDS011;8533;48.426;10.868;2023-11-18T11:14:22;5.63;;;3.23;;
16832;SDS011;8533;48.426;10.868;2023-11-18T11:17:00;5.10;;;3.10;;
16832;SDS011;8533;48.426;10.868;2023-11-18T11:19:42;4.43;;;3.47;;
16832;SDS011;8533;48.426;10.868;2023-11-18T11:22:20;3.90;;;2.73;;
16832;SDS011;8533;48.426;10.868;2023-11-18T11:27:33;5.27;;;3.07;;
16832;SDS011;8533;48.426;10.868;2023-11-18T11:30:20;3.27;;;2.90;;
16832;SDS011;8533;48.426;10.868;2023-11-18T11:32:51;2.83;;;2.43;;
16832;SDS011;8533;48.426;10.868;2023-11-18T11:35:28;4.77;;;2.90;;
16832;SDS011;8533;48.426;10.868;2023-11-18T11:37:56;3.53;;;2.87;;
16832;SDS011;8533;48.426;10.868;2023-11-18T11:40:32;4.77;;;2.97;;
16832;SDS011;8533;48.426;10.868;2023-11-18T11:42:59;3.67;;;3.03;;
16832;SDS011;8533;48.426;10.868;2023-11-18T11:45:26;4.53;;;3.33;;
16832;SDS011;8533;48.426;10.868;2023-11-18T11:47:56;3.20;;;2.47;;
16832;SDS011;8533;48.426;10.868;2023-11-18T11:51:01;4.03;;;2.50;;
16832;SDS011;8533;48.426;10.868;2023-11-18T11:53:40;3.77;;;2.53;;
16832;SDS011;8533;48.426;10.868;2023-11-18T11:56:10;2.63;;;2.43;;
16832;SDS011;8533;48.426;10.868;2023-11-18T11:58:39;5.13;;;2.40;;
16832;SDS011;8533;48.426;10.868;2023-11-18T12:01:27;3.67;;;2.00;;
16832;SDS011;8533;48.426;10.868;2023-11-18T12:04:02;2.23;;;2.00;;
16832;SDS011;8533;48.426;10.868;2023-11-18T12:06:32;2.83;;;1.97;;
16832;SDS011;8533;48.426;10.868;2023-11-18T12:09:00;2.73;;;2.20;;
16832;SDS011;8533;48.426;10.868;2023-11-18T12:11:32;3.57;;;2.00;;
16832;SDS011;8533;48.426;10.868;2023-11-18T12:14:05;2.73;;;2.27;;
16832;SDS011;8533;48.426;10.868;2023-11-18T12:17:05;4.47;;;2.60;;
16832;SDS011;8533;48.426;10.868;2023-11-18T12:19:35;4.60;;;2.30;;
16832;SDS011;8533;48.426;10.868;2023-11-18T12:22:11;2.43;;;1.97;;
16832;SDS011;8533;48.426;10.868;2023-11-18T12:25:28;4.57;;;2.20;;
16832;SDS011;8533;48.426;10.868;2023-11-18T12:32:58;3.00;;;2.60;;
16832;SDS011;8533;48.426;10.868;2023-11-18T12:35:29;2.57;;;2.33;;
16832;SDS011;8533;48.426;10.868;2023-11-18T12:41:00;4.33;;;2.50;;
16832;SDS011;8533;48.426;10.868;2023-11-18T12:49:19;2.47;;;2.27;;
16832;SDS011;8533;48.426;10.868;2023-11-18T12:51:49;3.00;;;2.40;;
16832;SDS011;8533;48.426;10.868;2023-11-18T12:54:20;3.10;;;2.37;;
16832;SDS011;8533;48.426;10.868;2023-11-18T12:56:46;4.43;;;2.53;;
16832;SDS011;8533;48.426;10.868;2023-11-18T12:59:16;4.77;;;3.00;;
16832;SDS011;8533;48.426;10.868;2023-11-18T13:01:49;6.17;;;3.30;;
16832;SDS011;8533;48.426;10.868;2023-11-18T13:04:32;3.60;;;2.70;;
16832;SDS011;8533;48.426;10.868;2023-11-18T13:06:59;3.20;;;2.60;;
16832;SDS011;8533;48.426;10.868;2023-11-18T13:09:25;3.90;;;2.93;;
16832;SDS011;8533;48.426;10.868;2023-11-18T13:14:23;4.23;;;2.93;;
16832;SDS011;8533;48.426;10.868;2023-11-18T13:16:53;5.20;;;3.43;;
16832;SDS011;8533;48.426;10.868;2023-11-18T13:19:28;7.77;;;5.53;;
16832;SDS011;8533;48.426;10.868;2023-11-18T13:22:00;5.03;;;2.60;;
16832;SDS011;8533;48.426;10.868;2023-11-18T13:24:33;5.73;;;2.50;;
16832;SDS011;8533;48.426;10.868;2023-11-18T13:27:04;3.37;;;2.30;;
16832;SDS011;8533;48.426;10.868;2023-11-18T13:29:31;2.90;;;2.20;;
16832;SDS011;8533;48.426;10.868;2023-11-18T13:31:58;2.53;;;2.30;;
16832;SDS011;8533;48.426;10.868;2023-11-18T13:34:25;2.87;;;2.40;;
16832;SDS011;8533;48.426;10.868;2023-11-18T13:36:52;3.63;;;2.37;;
16832;SDS011;8533;48.426;10.868;2023-11-18T13:39:18;2.60;;;2.20;;
16832;SDS011;8533;48.426;10.868;2023-11-18T13:41:44;9.17;;;2.17;;
16832;SDS011;8533;48.426;10.868;2023-11-18T13:44:13;7.50;;;2.47;;
16832;SDS011;8533;48.426;10.868;2023-11-18T13:46:59;1.90;;;1.80;;
16832;SDS011;8533;48.426;10.868;2023-11-18T13:49:27;3.17;;;2.20;;
16832;SDS011;8533;48.426;10.868;2023-11-18T13:51:53;2.53;;;2.00;;
16832;SDS011;8533;48.426;10.868;2023-11-18T13:54:19;3.10;;;2.10;;
16832;SDS011;8533;48.426;10.868;2023-11-18T13:56:44;2.40;;;1.93;;
16832;SDS011;8533;48.426;10.868;2023-11-18T13:59:10;2.10;;;1.90;;
16832;SDS011;8533;48.426;10.868;2023-11-18T14:01:35;4.33;;;2.13;;
16832;SDS011;8533;48.426;10.868;2023-11-18T14:04:02;3.17;;;2.10;;
16832;SDS011;8533;48.426;10.868;2023-11-18T14:06:29;3.40;;;2.00;;
16832;SDS011;8533;48.426;10.868;2023-11-18T14:08:55;2.57;;;2.00;;
16832;SDS011;8533;48.426;10.868;2023-11-18T14:11:20;2.57;;;2.07;;
16832;SDS011;8533;48.426;10.868;2023-11-18T14:13:46;2.17;;;1.90;;
16832;SDS011;8533;48.426;10.868;2023-11-18T14:16:11;2.10;;;1.90;;
16832;SDS011;8533;48.426;10.868;2023-11-18T14:18:37;3.17;;;2.37;;
16832;SDS011;8533;48.426;10.868;2023-11-18T14:21:06;2.43;;;1.97;;
16832;SDS011;8533;48.426;10.868;2023-11-18T14:23:31;3.50;;;2.07;;
16832;SDS011;8533;48.426;10.868;2023-11-18T14:25:57;5.00;;;2.50;;
16832;SDS011;8533;48.426;10.868;2023-11-18T14:28:23;7.00;;;3.90;;
16832;SDS011;8533;48.426;10.868;2023-11-18T14:30:51;6.00;;;3.20;;
16832;SDS011;8533;48.426;10.868;2023-11-18T14:33:16;5.10;;;3.40;;
16832;SDS011;8533;48.426;10.868;2023-11-18T14:35:43;3.13;;;2.50;;
16832;SDS011;8533;48.426;10.868;2023-11-18T14:38:10;3.00;;;2.47;;
16832;SDS011;8533;48.426;10.868;2023-11-18T14:40:37;4.70;;;2.90;;
16832;SDS011;8533;48.426;10.868;2023-11-18T14:43:04;5.83;;;3.37;;
16832;SDS011;8533;48.426;10.868;2023-11-18T14:45:30;5.83;;;3.63;;
16832;SDS011;8533;48.426;10.868;2023-11-18T14:47:55;6.17;;;3.73;;
16832;SDS011;8533;48.426;10.868;2023-11-18T14:50:21;4.53;;;3.13;;
16832;SDS011;8533;48.426;10.868;2023-11-18T14:52:48;6.03;;;2.77;;
16832;SDS011;8533;48.426;10.868;2023-11-18T14:55:25;3.47;;;2.63;;
16832;SDS011;8533;48.426;10.868;2023-11-18T14:57:54;3.80;;;3.10;;
16832;SDS011;8533;48.426;10.868;2023-11-18T15:00:20;5.03;;;2.47;;
16832;SDS011;8533;48.426;10.868;2023-11-18T15:02:52;5.33;;;3.00;;
16832;SDS011;8533;48.426;10.868;2023-11-18T15:05:19;5.87;;;3.07;;
16832;SDS011;8533;48.426;10.868;2023-11-18T15:07:45;3.37;;;2.50;;
16832;SDS011;8533;48.426;10.868;2023-11-18T15:10:13;3.07;;;2.20;;
16832;SDS011;8533;48.426;10.868;2023-11-18T15:12:51;5.47;;;3.53;;
16832;SDS011;8533;48.426;10.868;2023-11-18T15:15:23;9.97;;;3.27;;
16832;SDS011;8533;48.426;10.868;2023-11-18T15:17:56;4.93;;;3.20;;
16832;SDS011;8533;48.426;10.868;2023-11-18T15:20:28;3.30;;;2.70;;